sensor_id;sensor_type;location;lat;lon;timestamp;pressure;altitude;pressure_sealevel;temperature;humidity
25510;BME280;13413;52.336;21.200;2023-03-04T00:01:09;100134.14;;;4.26;60.60
25510;BME280;13413;52.336;21.200;2023-03-04T00:04:03;100130.70;;;4.16;61.08
25510;BME280;13413;52.336;21.200;2023-03-04T00:06:58;100135.34;;;4.19;61.12
25510;BME280;13413;52.336;21.200;2023-03-04T00:09:50;100136.58;;;4.17;61.23
25510;BME280;13413;52.336;21.200;2023-03-04T00:12:44;100135.92;;;4.26;60.80
25510;BME280;13413;52.336;21.200;2023-03-04T00:15:38;100136.25;;;4.26;60.69
25510;BME280;13413;52.336;21.200;2023-03-04T00:18:33;100122.95;;;4.36;60.76
25510;BME280;13413;52.336;21.200;2023-03-04T00:21:27;100122.84;;;4.42;60.78
25510;BME280;13413;52.336;21.200;2023-03-04T00:24:21;100121.53;;;4.32;60.73
25510;BME280;13413;52.336;21.200;2023-03-04T00:27:15;100114.60;;;4.33;60.76
25510;BME280;13413;52.336;21.200;2023-03-04T00:30:11;100111.83;;;4.37;60.69
25510;BME280;13413;52.336;21.200;2023-03-04T00:33:05;100112.42;;;4.41;60.74
25510;BME280;13413;52.336;21.200;2023-03-04T00:36:00;100104.59;;;4.48;60.42
25510;BME280;13413;52.336;21.200;2023-03-04T00:38:53;100098.89;;;4.45;60.61
25510;BME280;13413;52.336;21.200;2023-03-04T00:41:47;100089.67;;;4.32;61.19
25510;BME280;13413;52.336;21.200;2023-03-04T00:44:41;100081.61;;;4.47;60.65
25510;BME280;13413;52.336;21.200;2023-03-04T00:47:34;100079.88;;;4.45;60.76
25510;BME280;13413;52.336;21.200;2023-03-04T00:50:29;100079.77;;;4.55;60.67
25510;BME280;13413;52.336;21.200;2023-03-04T00:53:23;100074.80;;;4.43;60.82
25510;BME280;13413;52.336;21.200;2023-03-04T00:56:17;100063.85;;;4.46;60.92
25510;BME280;13413;52.336;21.200;2023-03-04T00:59:11;100050.27;;;4.54;60.99
25510;BME280;13413;52.336;21.200;2023-03-04T01:04:58;100029.04;;;4.53;60.75
25510;BME280;13413;52.336;21.200;2023-03-04T01:07:53;100026.77;;;4.46;61.16
25510;BME280;13413;52.336;21.200;2023-03-04T01:10:47;100019.48;;;4.39;61.28
25510;BME280;13413;52.336;21.200;2023-03-04T01:13:40;100016.67;;;4.43;61.30
25510;BME280;13413;52.336;21.200;2023-03-04T01:16:35;100012.35;;;4.41;61.20
25510;BME280;13413;52.336;21.200;2023-03-04T01:19:29;99999.05;;;4.52;60.96
25510;BME280;13413;52.336;21.200;2023-03-04T01:22:23;99979.86;;;4.49;60.79
25510;BME280;13413;52.336;21.200;2023-03-04T01:25:17;99966.05;;;4.56;60.88
25510;BME280;13413;52.336;21.200;2023-03-04T01:28:10;99955.40;;;4.54;60.79
25510;BME280;13413;52.336;21.200;2023-03-04T01:31:05;99941.48;;;4.60;60.83
25510;BME280;13413;52.336;21.200;2023-03-04T01:33:59;99939.83;;;4.63;60.93
25510;BME280;13413;52.336;21.200;2023-03-04T01:36:53;99936.86;;;4.61;60.88
25510;BME280;13413;52.336;21.200;2023-03-04T01:39:47;99931.37;;;4.49;61.05
25510;BME280;13413;52.336;21.200;2023-03-04T01:42:41;99931.39;;;4.45;61.09
25510;BME280;13413;52.336;21.200;2023-03-04T01:45:37;99931.52;;;4.49;61.05
25510;BME280;13413;52.336;21.200;2023-03-04T01:48:32;99932.54;;;4.57;60.73
25510;BME280;13413;52.336;21.200;2023-03-04T01:57:49;99920.00;;;4.54;60.74
25510;BME280;13413;52.336;21.200;2023-03-04T02:00:43;99916.06;;;4.57;60.51
25510;BME280;13413;52.336;21.200;2023-03-04T02:03:38;99916.80;;;4.39;60.97
25510;BME280;13413;52.336;21.200;2023-03-04T02:06:32;99918.65;;;4.54;60.66
25510;BME280;13413;52.336;21.200;2023-03-04T02:09:26;99912.60;;;4.62;60.75
25510;BME280;13413;52.336;21.200;2023-03-04T02:12:21;99911.71;;;4.64;60.40
25510;BME280;13413;52.336;21.200;2023-03-04T02:15:15;99906.60;;;4.63;60.37
25510;BME280;13413;52.336;21.200;2023-03-04T02:18:15;99906.95;;;4.68;60.45
25510;BME280;13413;52.336;21.200;2023-03-04T02:21:16;99908.52;;;4.60;60.65
25510;BME280;13413;52.336;21.200;2023-03-04T02:24:17;99909.90;;;4.52;60.70
25510;BME280;13413;52.336;21.200;2023-03-04T02:27:29;99909.72;;;4.63;60.53
25510;BME280;13413;52.336;21.200;2023-03-04T02:30:24;99907.87;;;4.71;60.38
25510;BME280;13413;52.336;21.200;2023-03-04T02:33:19;99910.07;;;4.74;60.58
25510;BME280;13413;52.336;21.200;2023-03-04T02:36:11;99908.25;;;4.80;60.42
25510;BME280;13413;52.336;21.200;2023-03-04T02:39:10;99904.78;;;4.88;60.23
25510;BME280;13413;52.336;21.200;2023-03-04T02:42:05;99905.49;;;4.83;60.28
25510;BME280;13413;52.336;21.200;2023-03-04T02:45:02;99897.83;;;4.79;60.51
25510;BME280;13413;52.336;21.200;2023-03-04T02:47:56;99892.65;;;4.89;60.26
25510;BME280;13413;52.336;21.200;2023-03-04T02:50:52;99890.96;;;4.91;60.31
25510;BME280;13413;52.336;21.200;2023-03-04T02:53:46;99887.84;;;5.00;60.21
25510;BME280;13413;52.336;21.200;2023-03-04T02:56:45;99887.48;;;5.00;60.24
25510;BME280;13413;52.336;21.200;2023-03-04T02:59:41;99879.88;;;5.02;60.36
25510;BME280;13413;52.336;21.200;2023-03-04T03:02:35;99876.52;;;5.01;60.23
25510;BME280;13413;52.336;21.200;2023-03-04T03:05:31;99873.41;;;4.88;60.44
25510;BME280;13413;52.336;21.200;2023-03-04T03:08:25;99874.20;;;4.91;60.64
25510;BME280;13413;52.336;21.200;2023-03-04T03:11:19;99866.19;;;4.76;60.84
25510;BME280;13413;52.336;21.200;2023-03-04T03:14:13;99863.09;;;4.72;61.03
25510;BME280;13413;52.336;21.200;2023-03-04T03:17:07;99859.73;;;4.81;60.98
25510;BME280;13413;52.336;21.200;2023-03-04T03:20:01;99863.81;;;4.93;60.92
25510;BME280;13413;52.336;21.200;2023-03-04T03:22:55;99865.19;;;4.87;61.01
25510;BME280;13413;52.336;21.200;2023-03-04T03:25:49;99868.11;;;4.94;60.87
25510;BME280;13413;52.336;21.200;2023-03-04T03:28:43;99865.09;;;5.03;60.62
25510;BME280;13413;52.336;21.200;2023-03-04T03:31:37;99863.27;;;4.92;60.92
25510;BME280;13413;52.336;21.200;2023-03-04T03:37:25;99849.80;;;5.02;60.97
25510;BME280;13413;52.336;21.200;2023-03-04T03:40:19;99844.13;;;5.01;60.86
25510;BME280;13413;52.336;21.200;2023-03-04T03:43:13;99845.76;;;4.98;60.82
25510;BME280;13413;52.336;21.200;2023-03-04T03:46:07;99848.67;;;5.02;61.01
25510;BME280;13413;52.336;21.200;2023-03-04T03:49:01;99837.23;;;5.06;60.84
25510;BME280;13413;52.336;21.200;2023-03-04T03:51:55;99834.61;;;5.11;60.90
25510;BME280;13413;52.336;21.200;2023-03-04T03:54:49;99834.09;;;5.11;60.96
25510;BME280;13413;52.336;21.200;2023-03-04T03:57:43;99821.44;;;5.21;60.67
25510;BME280;13413;52.336;21.200;2023-03-04T04:00:37;99824.96;;;5.22;60.69
25510;BME280;13413;52.336;21.200;2023-03-04T04:03:31;99824.41;;;5.26;60.66
25510;BME280;13413;52.336;21.200;2023-03-04T04:06:25;99825.41;;;5.09;61.04
25510;BME280;13413;52.336;21.200;2023-03-04T04:09:18;99821.67;;;4.98;61.25
25510;BME280;13413;52.336;21.200;2023-03-04T04:17:55;99818.73;;;5.35;60.71
25510;BME280;13413;52.336;21.200;2023-03-04T04:20:52;99816.34;;;5.30;60.79
25510;BME280;13413;52.336;21.200;2023-03-04T04:23:46;99814.16;;;5.39;60.59
25510;BME280;13413;52.336;21.200;2023-03-04T04:26:40;99815.35;;;5.36;60.61
25510;BME280;13413;52.336;21.200;2023-03-04T04:29:34;99813.99;;;5.39;60.56
25510;BME280;13413;52.336;21.200;2023-03-04T04:32:27;99811.05;;;5.21;60.88
25510;BME280;13413;52.336;21.200;2023-03-04T04:35:21;99808.30;;;5.41;60.58
25510;BME280;13413;52.336;21.200;2023-03-04T04:38:16;99804.77;;;5.50;60.33
25510;BME280;13413;52.336;21.200;2023-03-04T04:41:13;99804.90;;;5.42;60.50
25510;BME280;13413;52.336;21.200;2023-03-04T04:44:17;99797.71;;;5.54;60.29
25510;BME280;13413;52.336;21.200;2023-03-04T04:47:11;99793.87;;;5.43;60.38
25510;BME280;13413;52.336;21.200;2023-03-04T04:50:07;99786.95;;;5.29;60.68
25510;BME280;13413;52.336;21.200;2023-03-04T04:53:02;99783.25;;;5.38;60.51
25510;BME280;13413;52.336;21.200;2023-03-04T04:55:57;99782.13;;;5.42;60.27
25510;BME280;13413;52.336;21.200;2023-03-04T04:58:51;99784.08;;;5.26;60.68
25510;BME280;13413;52.336;21.200;2023-03-04T05:04:42;99773.34;;;5.47;60.22
25510;BME280;13413;52.336;21.200;2023-03-04T05:07:36;99769.16;;;5.52;60.21
25510;BME280;13413;52.336;21.200;2023-03-04T05:10:29;99770.40;;;5.58;59.97
25510;BME280;13413;52.336;21.200;2023-03-04T05:13:24;99771.12;;;5.43;60.28
25510;BME280;13413;52.336;21.200;2023-03-04T05:16:17;99767.87;;;5.45;60.23
25510;BME280;13413;52.336;21.200;2023-03-04T05:19:11;99768.79;;;5.57;60.03
25510;BME280;13413;52.336;21.200;2023-03-04T05:22:05;99767.64;;;5.53;59.98
25510;BME280;13413;52.336;21.200;2023-03-04T05:24:58;99766.87;;;5.47;60.01
25510;BME280;13413;52.336;21.200;2023-03-04T05:27:52;99762.81;;;5.57;60.11
25510;BME280;13413;52.336;21.200;2023-03-04T05:30:46;99757.83;;;5.61;59.89
25510;BME280;13413;52.336;21.200;2023-03-04T05:33:41;99755.52;;;5.63;59.80
25510;BME280;13413;52.336;21.200;2023-03-04T05:36:35;99756.27;;;5.58;59.93
25510;BME280;13413;52.336;21.200;2023-03-04T05:39:28;99760.42;;;5.62;59.84
25510;BME280;13413;52.336;21.200;2023-03-04T05:42:23;99756.91;;;5.51;60.07
25510;BME280;13413;52.336;21.200;2023-03-04T05:45:17;99756.86;;;5.62;59.83
25510;BME280;13413;52.336;21.200;2023-03-04T05:48:11;99749.36;;;5.65;59.96
25510;BME280;13413;52.336;21.200;2023-03-04T05:51:05;99742.34;;;5.64;59.78
25510;BME280;13413;52.336;21.200;2023-03-04T05:54:00;99735.73;;;5.58;59.97
25510;BME280;13413;52.336;21.200;2023-03-04T05:56:54;99733.92;;;5.58;59.90
25510;BME280;13413;52.336;21.200;2023-03-04T05:59:48;99729.02;;;5.64;59.97
25510;BME280;13413;52.336;21.200;2023-03-04T06:02:42;99726.80;;;5.70;59.85
25510;BME280;13413;52.336;21.200;2023-03-04T06:05:37;99724.39;;;5.64;59.73
25510;BME280;13413;52.336;21.200;2023-03-04T06:08:31;99723.64;;;5.76;59.70
25510;BME280;13413;52.336;21.200;2023-03-04T06:11:25;99725.81;;;5.77;59.58
25510;BME280;13413;52.336;21.200;2023-03-04T06:14:19;99715.23;;;5.80;59.52
25510;BME280;13413;52.336;21.200;2023-03-04T06:17:14;99719.27;;;5.81;59.53
25510;BME280;13413;52.336;21.200;2023-03-04T06:20:10;99717.38;;;5.88;59.48
25510;BME280;13413;52.336;21.200;2023-03-04T06:23:04;99718.83;;;5.89;59.35
25510;BME280;13413;52.336;21.200;2023-03-04T06:25:59;99718.65;;;5.95;59.24
25510;BME280;13413;52.336;21.200;2023-03-04T06:28:51;99713.91;;;5.92;59.22
25510;BME280;13413;52.336;21.200;2023-03-04T06:37:29;99714.90;;;5.98;59.31
25510;BME280;13413;52.336;21.200;2023-03-04T06:40:24;99719.28;;;5.96;59.25
25510;BME280;13413;52.336;21.200;2023-03-04T06:43:18;99722.56;;;5.88;59.38
25510;BME280;13413;52.336;21.200;2023-03-04T06:46:12;99716.65;;;5.99;59.16
25510;BME280;13413;52.336;21.200;2023-03-04T06:49:08;99716.88;;;5.95;59.32
25510;BME280;13413;52.336;21.200;2023-03-04T06:52:03;99713.92;;;5.87;59.52
25510;BME280;13413;52.336;21.200;2023-03-04T06:54:57;99715.00;;;5.85;59.49
25510;BME280;13413;52.336;21.200;2023-03-04T06:57:51;99714.57;;;5.94;59.35
25510;BME280;13413;52.336;21.200;2023-03-04T07:00:45;99715.90;;;6.03;59.19
25510;BME280;13413;52.336;21.200;2023-03-04T07:03:39;99720.36;;;6.07;59.23
25510;BME280;13413;52.336;21.200;2023-03-04T07:06:33;99721.85;;;5.97;59.29
25510;BME280;13413;52.336;21.200;2023-03-04T07:09:27;99726.31;;;5.94;59.48
25510;BME280;13413;52.336;21.200;2023-03-04T07:12:21;99720.98;;;5.98;59.45
25510;BME280;13413;52.336;21.200;2023-03-04T07:15:15;99719.61;;;5.98;59.48
25510;BME280;13413;52.336;21.200;2023-03-04T07:21:06;99719.93;;;5.93;59.50
25510;BME280;13413;52.336;21.200;2023-03-04T07:24:01;99717.80;;;6.03;59.45
25510;BME280;13413;52.336;21.200;2023-03-04T07:26:55;99717.55;;;6.04;59.47
25510;BME280;13413;52.336;21.200;2023-03-04T07:29:49;99713.50;;;6.02;59.43
25510;BME280;13413;52.336;21.200;2023-03-04T07:32:43;99712.90;;;6.06;59.31
25510;BME280;13413;52.336;21.200;2023-03-04T07:35:37;99714.11;;;6.18;59.17
25510;BME280;13413;52.336;21.200;2023-03-04T07:38:33;99710.69;;;6.17;59.16
25510;BME280;13413;52.336;21.200;2023-03-04T07:41:28;99708.67;;;6.10;59.21
25510;BME280;13413;52.336;21.200;2023-03-04T07:44:23;99709.65;;;6.07;59.34
25510;BME280;13413;52.336;21.200;2023-03-04T07:47:16;99699.68;;;6.09;59.28
25510;BME280;13413;52.336;21.200;2023-03-04T07:50:12;99701.41;;;6.04;59.41
25510;BME280;13413;52.336;21.200;2023-03-04T07:53:06;99699.95;;;6.11;59.27
25510;BME280;13413;52.336;21.200;2023-03-04T07:56:01;99692.48;;;6.10;59.37
25510;BME280;13413;52.336;21.200;2023-03-04T07:58:55;99694.42;;;6.23;59.16
25510;BME280;13413;52.336;21.200;2023-03-04T08:01:49;99692.77;;;6.11;59.20
25510;BME280;13413;52.336;21.200;2023-03-04T08:04:44;99693.23;;;6.25;59.05
25510;BME280;13413;52.336;21.200;2023-03-04T08:07:38;99692.81;;;6.12;59.18
25510;BME280;13413;52.336;21.200;2023-03-04T08:10:32;99696.64;;;6.16;59.16
25510;BME280;13413;52.336;21.200;2023-03-04T08:13:27;99689.75;;;6.06;59.35
25510;BME280;13413;52.336;21.200;2023-03-04T08:16:24;99687.85;;;6.21;59.11
25510;BME280;13413;52.336;21.200;2023-03-04T08:19:19;99688.70;;;6.23;58.98
25510;BME280;13413;52.336;21.200;2023-03-04T08:22:13;99688.94;;;6.17;59.07
25510;BME280;13413;52.336;21.200;2023-03-04T08:25:08;99689.23;;;6.27;58.97
25510;BME280;13413;52.336;21.200;2023-03-04T08:28:02;99686.18;;;6.36;58.80
25510;BME280;13413;52.336;21.200;2023-03-04T08:30:56;99682.13;;;6.36;58.68
25510;BME280;13413;52.336;21.200;2023-03-04T08:33:50;99683.73;;;6.41;58.56
25510;BME280;13413;52.336;21.200;2023-03-04T08:36:45;99687.06;;;6.29;58.64
25510;BME280;13413;52.336;21.200;2023-03-04T08:39:40;99684.20;;;6.32;58.73
25510;BME280;13413;52.336;21.200;2023-03-04T08:42:34;99677.70;;;6.35;58.57
25510;BME280;13413;52.336;21.200;2023-03-04T08:45:29;99675.18;;;6.43;58.50
25510;BME280;13413;52.336;21.200;2023-03-04T08:48:23;99670.51;;;6.33;58.69
25510;BME280;13413;52.336;21.200;2023-03-04T08:57:30;99651.77;;;6.63;58.24
25510;BME280;13413;52.336;21.200;2023-03-04T09:00:25;99652.41;;;6.49;58.32
25510;BME280;13413;52.336;21.200;2023-03-04T09:03:19;99644.78;;;6.45;58.35
25510;BME280;13413;52.336;21.200;2023-03-04T09:06:15;99648.47;;;6.47;58.25
25510;BME280;13413;52.336;21.200;2023-03-04T09:09:09;99647.13;;;6.63;58.11
25510;BME280;13413;52.336;21.200;2023-03-04T09:12:04;99641.55;;;6.52;58.26
25510;BME280;13413;52.336;21.200;2023-03-04T09:14:56;99640.60;;;6.66;58.14
25510;BME280;13413;52.336;21.200;2023-03-04T09:17:50;99638.52;;;6.69;57.91
25510;BME280;13413;52.336;21.200;2023-03-04T09:20:44;99641.23;;;6.67;57.94
25510;BME280;13413;52.336;21.200;2023-03-04T09:23:39;99633.13;;;6.67;57.93
25510;BME280;13413;52.336;21.200;2023-03-04T09:26:35;99635.23;;;6.69;58.00
25510;BME280;13413;52.336;21.200;2023-03-04T09:29:29;99628.55;;;6.70;57.99
25510;BME280;13413;52.336;21.200;2023-03-04T09:32:23;99627.15;;;6.75;58.00
25510;BME280;13413;52.336;21.200;2023-03-04T09:35:17;99629.27;;;6.84;57.84
25510;BME280;13413;52.336;21.200;2023-03-04T09:38:12;99637.09;;;6.80;57.79
25510;BME280;13413;52.336;21.200;2023-03-04T09:41:08;99624.20;;;6.76;57.79
25510;BME280;13413;52.336;21.200;2023-03-04T09:44:06;99635.83;;;6.63;58.18
25510;BME280;13413;52.336;21.200;2023-03-04T09:47:05;99632.70;;;6.78;57.83
25510;BME280;13413;52.336;21.200;2023-03-04T09:50:03;99630.84;;;6.75;57.77
25510;BME280;13413;52.336;21.200;2023-03-04T09:53:11;99633.82;;;6.62;58.07
25510;BME280;13413;52.336;21.200;2023-03-04T09:56:12;99621.11;;;6.74;57.91
25510;BME280;13413;52.336;21.200;2023-03-04T09:59:16;99626.96;;;6.76;57.90
25510;BME280;13413;52.336;21.200;2023-03-04T10:02:19;99625.38;;;6.83;57.78
25510;BME280;13413;52.336;21.200;2023-03-04T10:05:17;99617.21;;;6.77;57.83
25510;BME280;13413;52.336;21.200;2023-03-04T10:08:29;99617.70;;;6.82;57.81
25510;BME280;13413;52.336;21.200;2023-03-04T10:11:29;99613.48;;;6.87;57.77
25510;BME280;13413;52.336;21.200;2023-03-04T10:14:34;99611.06;;;6.76;58.05
25510;BME280;13413;52.336;21.200;2023-03-04T10:17:35;99609.80;;;6.87;58.00
25510;BME280;13413;52.336;21.200;2023-03-04T10:20:36;99606.36;;;6.94;57.90
25510;BME280;13413;52.336;21.200;2023-03-04T10:23:37;99608.34;;;6.93;57.84
25510;BME280;13413;52.336;21.200;2023-03-04T10:26:31;99602.66;;;6.94;57.89
25510;BME280;13413;52.336;21.200;2023-03-04T10:29:26;99602.96;;;6.91;58.05
25510;BME280;13413;52.336;21.200;2023-03-04T10:32:21;99598.83;;;6.80;58.22
25510;BME280;13413;52.336;21.200;2023-03-04T10:35:22;99591.95;;;6.91;58.22
25510;BME280;13413;52.336;21.200;2023-03-04T10:38:19;99593.99;;;6.93;58.43
25510;BME280;13413;52.336;21.200;2023-03-04T10:41:15;99592.06;;;6.91;58.62
25510;BME280;13413;52.336;21.200;2023-03-04T10:44:16;99586.74;;;6.89;58.93
25510;BME280;13413;52.336;21.200;2023-03-04T10:47:11;99584.67;;;6.76;59.39
25510;BME280;13413;52.336;21.200;2023-03-04T10:50:15;99590.63;;;6.76;59.47
25510;BME280;13413;52.336;21.200;2023-03-04T10:53:27;99590.33;;;6.72;59.98
25510;BME280;13413;52.336;21.200;2023-03-04T10:56:39;99589.70;;;6.59;60.29
25510;BME280;13413;52.336;21.200;2023-03-04T10:59:46;99586.95;;;6.67;60.22
25510;BME280;13413;52.336;21.200;2023-03-04T11:02:40;99581.70;;;6.60;60.45
25510;BME280;13413;52.336;21.200;2023-03-04T11:05:34;99583.56;;;6.64;60.47
25510;BME280;13413;52.336;21.200;2023-03-04T11:08:26;99582.58;;;6.62;60.82
25510;BME280;13413;52.336;21.200;2023-03-04T11:17:26;99582.52;;;6.56;61.18
25510;BME280;13413;52.336;21.200;2023-03-04T11:20:29;99583.73;;;6.61;60.97
25510;BME280;13413;52.336;21.200;2023-03-04T11:23:31;99582.84;;;6.69;60.93
25510;BME280;13413;52.336;21.200;2023-03-04T11:26:30;99582.69;;;6.61;61.17
25510;BME280;13413;52.336;21.200;2023-03-04T11:29:32;99583.21;;;6.61;61.04
25510;BME280;13413;52.336;21.200;2023-03-04T11:32:30;99581.91;;;6.63;61.14
25510;BME280;13413;52.336;21.200;2023-03-04T11:35:31;99577.77;;;6.63;61.25
25510;BME280;13413;52.336;21.200;2023-03-04T11:38:30;99580.08;;;6.59;61.27
25510;BME280;13413;52.336;21.200;2023-03-04T11:41:29;99576.38;;;6.64;61.32
25510;BME280;13413;52.336;21.200;2023-03-04T11:44:25;99573.27;;;6.66;61.40
25510;BME280;13413;52.336;21.200;2023-03-04T11:47:27;99569.80;;;6.60;61.56
25510;BME280;13413;52.336;21.200;2023-03-04T11:50:37;99568.97;;;6.40;62.04
25510;BME280;13413;52.336;21.200;2023-03-04T11:53:41;99563.63;;;6.27;62.16
25510;BME280;13413;52.336;21.200;2023-03-04T11:56:41;99565.45;;;6.13;62.03
25510;BME280;13413;52.336;21.200;2023-03-04T11:59:51;99567.90;;;6.10;61.79
25510;BME280;13413;52.336;21.200;2023-03-04T12:03:02;99562.87;;;6.00;61.84
25510;BME280;13413;52.336;21.200;2023-03-04T12:06:08;99560.46;;;5.99;61.85
25510;BME280;13413;52.336;21.200;2023-03-04T12:09:20;99557.01;;;5.97;62.09
25510;BME280;13413;52.336;21.200;2023-03-04T12:12:31;99556.61;;;5.99;62.30
25510;BME280;13413;52.336;21.200;2023-03-04T12:15:33;99553.77;;;6.03;62.50
25510;BME280;13413;52.336;21.200;2023-03-04T12:18:49;99554.41;;;6.05;62.77
25510;BME280;13413;52.336;21.200;2023-03-04T12:22:01;99546.04;;;6.08;62.89
25510;BME280;13413;52.336;21.200;2023-03-04T12:25:25;99538.50;;;6.12;63.51
25510;BME280;13413;52.336;21.200;2023-03-04T12:28:39;99538.98;;;6.19;63.99
25510;BME280;13413;52.336;21.200;2023-03-04T12:31:37;99537.77;;;6.38;63.73
25510;BME280;13413;52.336;21.200;2023-03-04T12:34:54;99538.41;;;6.51;63.78
25510;BME280;13413;52.336;21.200;2023-03-04T12:38:11;99538.95;;;6.58;63.74
25510;BME280;13413;52.336;21.200;2023-03-04T12:41:31;99538.84;;;6.68;63.79
25510;BME280;13413;52.336;21.200;2023-03-04T12:44:32;99535.78;;;6.78;63.70
25510;BME280;13413;52.336;21.200;2023-03-04T12:47:36;99536.95;;;6.80;64.10
25510;BME280;13413;52.336;21.200;2023-03-04T12:50:38;99537.52;;;6.89;64.15
25510;BME280;13413;52.336;21.200;2023-03-04T12:53:39;99533.18;;;6.93;64.15
25510;BME280;13413;52.336;21.200;2023-03-04T12:56:39;99526.36;;;7.05;64.00
25510;BME280;13413;52.336;21.200;2023-03-04T12:59:36;99520.15;;;7.01;64.12
25510;BME280;13413;52.336;21.200;2023-03-04T13:02:44;99529.64;;;7.17;63.85
25510;BME280;13413;52.336;21.200;2023-03-04T13:05:49;99534.52;;;7.24;63.73
25510;BME280;13413;52.336;21.200;2023-03-04T13:09:01;99535.59;;;7.27;63.59
25510;BME280;13413;52.336;21.200;2023-03-04T13:12:14;99527.22;;;7.27;63.50
25510;BME280;13413;52.336;21.200;2023-03-04T13:15:33;99530.19;;;7.22;63.45
25510;BME280;13413;52.336;21.200;2023-03-04T13:18:35;99525.73;;;7.32;63.18
25510;BME280;13413;52.336;21.200;2023-03-04T13:21:30;99524.24;;;7.30;63.12
25510;BME280;13413;52.336;21.200;2023-03-04T13:24:46;99524.63;;;7.31;63.19
25510;BME280;13413;52.336;21.200;2023-03-04T13:27:49;99529.98;;;7.32;63.34
25510;BME280;13413;52.336;21.200;2023-03-04T13:35:48;99540.41;;;7.37;63.02
25510;BME280;13413;52.336;21.200;2023-03-04T13:38:42;99536.84;;;7.10;62.68
25510;BME280;13413;52.336;21.200;2023-03-04T13:41:50;99536.99;;;7.12;62.47
25510;BME280;13413;52.336;21.200;2023-03-04T13:45:01;99531.58;;;7.07;62.24
25510;BME280;13413;52.336;21.200;2023-03-04T13:47:55;99526.42;;;6.92;61.73
25510;BME280;13413;52.336;21.200;2023-03-04T13:50:49;99529.02;;;6.86;61.58
25510;BME280;13413;52.336;21.200;2023-03-04T13:53:45;99522.66;;;6.81;61.66
25510;BME280;13413;52.336;21.200;2023-03-04T13:56:44;99519.63;;;6.81;61.62
25510;BME280;13413;52.336;21.200;2023-03-04T13:59:38;99518.70;;;6.75;61.21
25510;BME280;13413;52.336;21.200;2023-03-04T14:02:35;99517.27;;;6.69;61.07
25510;BME280;13413;52.336;21.200;2023-03-04T14:05:29;99513.67;;;6.70;61.20
25510;BME280;13413;52.336;21.200;2023-03-04T14:08:36;99512.54;;;6.74;61.19
25510;BME280;13413;52.336;21.200;2023-03-04T14:11:34;99524.77;;;6.88;61.20
25510;BME280;13413;52.336;21.200;2023-03-04T14:14:31;99515.30;;;7.08;61.39
25510;BME280;13413;52.336;21.200;2023-03-04T14:17:34;99513.20;;;7.46;61.42
25510;BME280;13413;52.336;21.200;2023-03-04T14:20:30;99512.45;;;7.75;60.86
25510;BME280;13413;52.336;21.200;2023-03-04T14:23:26;99514.67;;;8.10;60.38
25510;BME280;13413;52.336;21.200;2023-03-04T14:26:20;99515.02;;;8.40;60.19
25510;BME280;13413;52.336;21.200;2023-03-04T14:32:18;99514.11;;;8.21;58.79
25510;BME280;13413;52.336;21.200;2023-03-04T14:35:21;99513.11;;;8.01;58.79
25510;BME280;13413;52.336;21.200;2023-03-04T14:38:22;99517.23;;;7.87;59.13
25510;BME280;13413;52.336;21.200;2023-03-04T14:41:18;99525.65;;;7.80;59.09
25510;BME280;13413;52.336;21.200;2023-03-04T14:44:22;99529.28;;;7.79;58.63
25510;BME280;13413;52.336;21.200;2023-03-04T14:47:21;99529.45;;;7.79;58.44
25510;BME280;13413;52.336;21.200;2023-03-04T14:50:18;99529.84;;;7.83;57.76
25510;BME280;13413;52.336;21.200;2023-03-04T14:53:17;99538.77;;;7.77;57.13
25510;BME280;13413;52.336;21.200;2023-03-04T14:56:11;99539.92;;;7.72;56.09
25510;BME280;13413;52.336;21.200;2023-03-04T14:59:10;99542.09;;;7.65;55.00
25510;BME280;13413;52.336;21.200;2023-03-04T15:02:22;99552.79;;;7.64;53.12
25510;BME280;13413;52.336;21.200;2023-03-04T15:05:20;99556.97;;;7.60;51.50
25510;BME280;13413;52.336;21.200;2023-03-04T15:08:23;99563.44;;;7.62;50.98
25510;BME280;13413;52.336;21.200;2023-03-04T15:11:23;99570.05;;;7.63;50.87
25510;BME280;13413;52.336;21.200;2023-03-04T15:14:45;99578.65;;;7.60;49.60
25510;BME280;13413;52.336;21.200;2023-03-04T15:17:40;99599.08;;;7.51;48.88
25510;BME280;13413;52.336;21.200;2023-03-04T15:23:27;99633.11;;;7.29;49.48
25510;BME280;13413;52.336;21.200;2023-03-04T15:26:23;99640.52;;;7.17;49.62
25510;BME280;13413;52.336;21.200;2023-03-04T15:29:19;99644.61;;;6.96;48.81
25510;BME280;13413;52.336;21.200;2023-03-04T15:32:14;99649.11;;;6.78;48.54
25510;BME280;13413;52.336;21.200;2023-03-04T15:35:11;99649.54;;;6.63;48.05
25510;BME280;13413;52.336;21.200;2023-03-04T15:38:06;99649.38;;;6.53;48.27
25510;BME280;13413;52.336;21.200;2023-03-04T15:41:01;99655.75;;;6.48;48.78
25510;BME280;13413;52.336;21.200;2023-03-04T15:43:55;99660.83;;;6.41;48.74
25510;BME280;13413;52.336;21.200;2023-03-04T15:46:47;99674.45;;;6.28;47.32
25510;BME280;13413;52.336;21.200;2023-03-04T15:55:17;99702.80;;;6.29;47.54
25510;BME280;13413;52.336;21.200;2023-03-04T15:58:13;99716.46;;;6.26;47.31
25510;BME280;13413;52.336;21.200;2023-03-04T16:01:07;99716.26;;;6.23;47.12
25510;BME280;13413;52.336;21.200;2023-03-04T16:04:00;99726.50;;;6.22;47.45
25510;BME280;13413;52.336;21.200;2023-03-04T16:06:54;99733.64;;;6.21;47.58
25510;BME280;13413;52.336;21.200;2023-03-04T16:09:51;99741.17;;;6.20;47.42
25510;BME280;13413;52.336;21.200;2023-03-04T16:12:47;99748.77;;;6.19;47.55
25510;BME280;13413;52.336;21.200;2023-03-04T16:18:34;99767.92;;;6.02;46.66
25510;BME280;13413;52.336;21.200;2023-03-04T16:21:29;99774.88;;;5.98;46.40
25510;BME280;13413;52.336;21.200;2023-03-04T16:24:22;99779.90;;;5.90;45.79
25510;BME280;13413;52.336;21.200;2023-03-04T16:27:17;99786.14;;;5.79;43.86
25510;BME280;13413;52.336;21.200;2023-03-04T16:30:17;99781.00;;;5.75;44.00
25510;BME280;13413;52.336;21.200;2023-03-04T16:33:11;99791.84;;;5.65;42.99
25510;BME280;13413;52.336;21.200;2023-03-04T16:36:12;99792.13;;;5.72;44.89
25510;BME280;13413;52.336;21.200;2023-03-04T16:39:11;99795.80;;;5.62;42.04